sensor_id;sensor_type;location;lat;lon;timestamp;temperature;humidity
7030;DHT22;3556;53.500;10.176;2022-11-15T00:00:49;5.90;99.90
7030;DHT22;3556;53.500;10.176;2022-11-15T00:03:15;5.90;99.90
7030;DHT22;3556;53.500;10.176;2022-11-15T00:05:41;5.90;99.90
7030;DHT22;3556;53.500;10.176;2022-11-15T00:08:07;5.90;99.90
7030;DHT22;3556;53.500;10.176;2022-11-15T00:10:33;5.90;99.90
7030;DHT22;3556;53.500;10.176;2022-11-15T00:12:58;5.90;99.90
7030;DHT22;3556;53.500;10.176;2022-11-15T00:15:24;5.90;99.90
7030;DHT22;3556;53.500;10.176;2022-11-15T00:17:49;5.90;99.90
7030;DHT22;3556;53.500;10.176;2022-11-15T00:20:16;5.90;99.90
7030;DHT22;3556;53.500;10.176;2022-11-15T00:22:42;5.90;99.90
7030;DHT22;3556;53.500;10.176;2022-11-15T00:25:08;5.90;99.90
7030;DHT22;3556;53.500;10.176;2022-11-15T00:27:33;5.90;99.90
7030;DHT22;3556;53.500;10.176;2022-11-15T00:30:00;5.90;99.90
7030;DHT22;3556;53.500;10.176;2022-11-15T00:32:25;5.90;99.90
7030;DHT22;3556;53.500;10.176;2022-11-15T00:34:51;5.90;99.90
7030;DHT22;3556;53.500;10.176;2022-11-15T00:37:17;5.90;99.90
7030;DHT22;3556;53.500;10.176;2022-11-15T00:39:42;5.90;99.90
7030;DHT22;3556;53.500;10.176;2022-11-15T00:42:08;5.90;99.90
7030;DHT22;3556;53.500;10.176;2022-11-15T00:44:34;5.90;99.90
7030;DHT22;3556;53.500;10.176;2022-11-15T00:46:59;5.90;99.90
7030;DHT22;3556;53.500;10.176;2022-11-15T00:49:25;5.90;99.90
7030;DHT22;3556;53.500;10.176;2022-11-15T00:51:50;5.80;99.90
7030;DHT22;3556;53.500;10.176;2022-11-15T00:54:16;5.80;99.90
7030;DHT22;3556;53.500;10.176;2022-11-15T00:56:42;5.80;99.90
7030;DHT22;3556;53.500;10.176;2022-11-15T00:59:07;5.90;99.90
7030;DHT22;3556;53.500;10.176;2022-11-15T01:01:33;5.90;99.90
7030;DHT22;3556;53.500;10.176;2022-11-15T01:03:58;5.90;99.90
7030;DHT22;3556;53.500;10.176;2022-11-15T01:06:24;6.00;99.90
7030;DHT22;3556;53.500;10.176;2022-11-15T01:08:50;6.00;99.90
7030;DHT22;3556;53.500;10.176;2022-11-15T01:11:15;6.00;99.90
7030;DHT22;3556;53.500;10.176;2022-11-15T01:13:41;6.00;99.90
7030;DHT22;3556;53.500;10.176;2022-11-15T01:16:17;6.00;99.90
7030;DHT22;3556;53.500;10.176;2022-11-15T01:18:45;6.00;99.90
7030;DHT22;3556;53.500;10.176;2022-11-15T01:21:13;6.00;99.90
7030;DHT22;3556;53.500;10.176;2022-11-15T01:23:39;5.90;99.90
7030;DHT22;3556;53.500;10.176;2022-11-15T01:26:07;5.90;99.90
7030;DHT22;3556;53.500;10.176;2022-11-15T01:28:35;5.90;99.90
7030;DHT22;3556;53.500;10.176;2022-11-15T01:31:02;5.80;99.90
7030;DHT22;3556;53.500;10.176;2022-11-15T01:33:29;5.80;99.90
7030;DHT22;3556;53.500;10.176;2022-11-15T01:35:54;5.80;99.90
7030;DHT22;3556;53.500;10.176;2022-11-15T01:38:21;5.70;99.90
7030;DHT22;3556;53.500;10.176;2022-11-15T01:40:47;5.70;99.90
7030;DHT22;3556;53.500;10.176;2022-11-15T01:43:20;5.70;99.90
7030;DHT22;3556;53.500;10.176;2022-11-15T01:45:51;5.60;99.90
7030;DHT22;3556;53.500;10.176;2022-11-15T01:48:18;5.60;99.90
7030;DHT22;3556;53.500;10.176;2022-11-15T01:50:44;5.60;99.90
7030;DHT22;3556;53.500;10.176;2022-11-15T01:53:10;5.50;99.90
7030;DHT22;3556;53.500;10.176;2022-11-15T01:55:36;5.50;99.90
7030;DHT22;3556;53.500;10.176;2022-11-15T01:58:03;5.50;99.90
7030;DHT22;3556;53.500;10.176;2022-11-15T02:00:30;5.40;99.90
7030;DHT22;3556;53.500;10.176;2022-11-15T02:02:56;5.40;99.90
7030;DHT22;3556;53.500;10.176;2022-11-15T02:05:22;5.40;99.90
7030;DHT22;3556;53.500;10.176;2022-11-15T02:07:48;5.30;99.90
7030;DHT22;3556;53.500;10.176;2022-11-15T02:10:19;5.30;99.90
7030;DHT22;3556;53.500;10.176;2022-11-15T02:12:45;5.30;99.90
7030;DHT22;3556;53.500;10.176;2022-11-15T02:15:12;5.20;99.90
7030;DHT22;3556;53.500;10.176;2022-11-15T02:21:16;5.20;99.90
7030;DHT22;3556;53.500;10.176;2022-11-15T02:29:15;5.10;99.90
7030;DHT22;3556;53.500;10.176;2022-11-15T02:31:54;5.10;99.90
7030;DHT22;3556;53.500;10.176;2022-11-15T02:37:25;5.00;99.90
7030;DHT22;3556;53.500;10.176;2022-11-15T02:42:24;5.00;99.90
7030;DHT22;3556;53.500;10.176;2022-11-15T02:45:12;4.90;99.90
7030;DHT22;3556;53.500;10.176;2022-11-15T02:47:44;4.90;99.90
7030;DHT22;3556;53.500;10.176;2022-11-15T02:50:14;4.90;99.90
7030;DHT22;3556;53.500;10.176;2022-11-15T02:52:41;4.90;99.90
7030;DHT22;3556;53.500;10.176;2022-11-15T02:58:35;4.80;99.90
7030;DHT22;3556;53.500;10.176;2022-11-15T03:01:14;4.80;99.90
7030;DHT22;3556;53.500;10.176;2022-11-15T03:04:10;4.80;99.90
7030;DHT22;3556;53.500;10.176;2022-11-15T03:07:02;4.80;99.90
7030;DHT22;3556;53.500;10.176;2022-11-15T03:09:46;4.80;99.90
7030;DHT22;3556;53.500;10.176;2022-11-15T03:15:08;4.80;99.90
7030;DHT22;3556;53.500;10.176;2022-11-15T03:17:53;4.90;99.90
7030;DHT22;3556;53.500;10.176;2022-11-15T03:20:21;4.90;99.90
7030;DHT22;3556;53.500;10.176;2022-11-15T03:22:47;4.90;99.90
7030;DHT22;3556;53.500;10.176;2022-11-15T03:25:20;4.90;99.90
7030;DHT22;3556;53.500;10.176;2022-11-15T03:27:51;4.90;99.90
7030;DHT22;3556;53.500;10.176;2022-11-15T03:30:18;4.90;99.90
7030;DHT22;3556;53.500;10.176;2022-11-15T03:32:51;5.00;99.90
7030;DHT22;3556;53.500;10.176;2022-11-15T03:35:21;5.00;99.90
7030;DHT22;3556;53.500;10.176;2022-11-15T03:37:51;5.00;99.90
7030;DHT22;3556;53.500;10.176;2022-11-15T03:40:24;5.00;99.90
7030;DHT22;3556;53.500;10.176;2022-11-15T03:45:32;5.00;99.90
7030;DHT22;3556;53.500;10.176;2022-11-15T03:48:21;5.00;99.90
7030;DHT22;3556;53.500;10.176;2022-11-15T03:50:49;5.00;99.90
7030;DHT22;3556;53.500;10.176;2022-11-15T03:53:15;5.00;99.90
7030;DHT22;3556;53.500;10.176;2022-11-15T03:55:41;5.00;99.90
7030;DHT22;3556;53.500;10.176;2022-11-15T03:58:07;5.00;99.90
7030;DHT22;3556;53.500;10.176;2022-11-15T04:00:33;5.00;99.90
7030;DHT22;3556;53.500;10.176;2022-11-15T04:02:58;5.00;99.90
7030;DHT22;3556;53.500;10.176;2022-11-15T04:05:24;5.00;99.90
7030;DHT22;3556;53.500;10.176;2022-11-15T04:07:50;5.00;99.90
7030;DHT22;3556;53.500;10.176;2022-11-15T04:10:15;5.10;99.90
7030;DHT22;3556;53.500;10.176;2022-11-15T04:12:43;5.10;99.90
7030;DHT22;3556;53.500;10.176;2022-11-15T04:15:10;5.10;99.90
7030;DHT22;3556;53.500;10.176;2022-11-15T04:17:51;5.00;99.90
7030;DHT22;3556;53.500;10.176;2022-11-15T04:23:08;5.10;99.90
7030;DHT22;3556;53.500;10.176;2022-11-15T04:25:55;5.10;99.90
7030;DHT22;3556;53.500;10.176;2022-11-15T04:28:21;5.00;99.90
7030;DHT22;3556;53.500;10.176;2022-11-15T04:30:47;5.10;99.90
7030;DHT22;3556;53.500;10.176;2022-11-15T04:33:12;5.10;99.90
7030;DHT22;3556;53.500;10.176;2022-11-15T04:35:38;5.10;99.90
7030;DHT22;3556;53.500;10.176;2022-11-15T04:38:06;5.10;99.90
7030;DHT22;3556;53.500;10.176;2022-11-15T04:40:32;5.10;99.90
7030;DHT22;3556;53.500;10.176;2022-11-15T04:42:58;5.20;99.90
7030;DHT22;3556;53.500;10.176;2022-11-15T04:45:24;5.20;99.90
7030;DHT22;3556;53.500;10.176;2022-11-15T04:47:49;5.30;99.90
7030;DHT22;3556;53.500;10.176;2022-11-15T04:50:15;5.30;99.90
7030;DHT22;3556;53.500;10.176;2022-11-15T04:52:43;5.40;99.90
7030;DHT22;3556;53.500;10.176;2022-11-15T04:55:10;5.50;99.90
7030;DHT22;3556;53.500;10.176;2022-11-15T04:57:36;5.50;99.90
7030;DHT22;3556;53.500;10.176;2022-11-15T05:00:05;5.60;99.90
7030;DHT22;3556;53.500;10.176;2022-11-15T05:02:31;5.60;99.90
7030;DHT22;3556;53.500;10.176;2022-11-15T05:05:16;5.70;99.90
7030;DHT22;3556;53.500;10.176;2022-11-15T05:07:42;5.80;99.90
7030;DHT22;3556;53.500;10.176;2022-11-15T05:10:08;5.90;99.90
7030;DHT22;3556;53.500;10.176;2022-11-15T05:12:34;5.90;99.90
7030;DHT22;3556;53.500;10.176;2022-11-15T05:14:59;6.00;99.90
7030;DHT22;3556;53.500;10.176;2022-11-15T05:17:25;6.10;99.90
7030;DHT22;3556;53.500;10.176;2022-11-15T05:19:51;6.20;99.90
7030;DHT22;3556;53.500;10.176;2022-11-15T05:22:18;6.20;99.90
7030;DHT22;3556;53.500;10.176;2022-11-15T05:24:43;6.30;99.90
7030;DHT22;3556;53.500;10.176;2022-11-15T05:27:09;6.30;99.90
7030;DHT22;3556;53.500;10.176;2022-11-15T05:29:34;6.30;99.90
7030;DHT22;3556;53.500;10.176;2022-11-15T05:32:00;6.40;99.90
7030;DHT22;3556;53.500;10.176;2022-11-15T05:34:26;6.40;99.90
7030;DHT22;3556;53.500;10.176;2022-11-15T05:36:52;6.50;99.90
7030;DHT22;3556;53.500;10.176;2022-11-15T05:39:18;6.50;99.90
7030;DHT22;3556;53.500;10.176;2022-11-15T05:42:04;6.50;99.90
7030;DHT22;3556;53.500;10.176;2022-11-15T05:44:31;6.60;99.90
7030;DHT22;3556;53.500;10.176;2022-11-15T05:46:58;6.60;99.90
7030;DHT22;3556;53.500;10.176;2022-11-15T05:49:26;6.60;99.90
7030;DHT22;3556;53.500;10.176;2022-11-15T05:51:53;6.60;99.90
7030;DHT22;3556;53.500;10.176;2022-11-15T05:54:20;6.60;99.90
7030;DHT22;3556;53.500;10.176;2022-11-15T05:56:46;6.70;99.90
7030;DHT22;3556;53.500;10.176;2022-11-15T05:59:12;6.70;99.90
7030;DHT22;3556;53.500;10.176;2022-11-15T06:01:39;6.70;99.90
7030;DHT22;3556;53.500;10.176;2022-11-15T06:04:05;6.70;99.90
7030;DHT22;3556;53.500;10.176;2022-11-15T06:06:30;6.70;99.90
7030;DHT22;3556;53.500;10.176;2022-11-15T06:08:56;6.70;99.90
7030;DHT22;3556;53.500;10.176;2022-11-15T06:11:21;6.70;99.90
7030;DHT22;3556;53.500;10.176;2022-11-15T06:13:47;6.80;99.90
7030;DHT22;3556;53.500;10.176;2022-11-15T06:16:12;6.80;99.90
7030;DHT22;3556;53.500;10.176;2022-11-15T06:18:38;6.80;99.90
7030;DHT22;3556;53.500;10.176;2022-11-15T06:21:04;6.80;99.90
7030;DHT22;3556;53.500;10.176;2022-11-15T06:23:34;6.90;99.90
7030;DHT22;3556;53.500;10.176;2022-11-15T06:26:01;6.90;99.90
7030;DHT22;3556;53.500;10.176;2022-11-15T06:28:31;6.90;99.90
7030;DHT22;3556;53.500;10.176;2022-11-15T06:31:05;6.90;99.90
7030;DHT22;3556;53.500;10.176;2022-11-15T06:33:31;6.90;99.90
7030;DHT22;3556;53.500;10.176;2022-11-15T06:36:04;6.90;99.90
7030;DHT22;3556;53.500;10.176;2022-11-15T06:38:31;6.80;99.90
7030;DHT22;3556;53.500;10.176;2022-11-15T06:41:04;6.80;99.90
7030;DHT22;3556;53.500;10.176;2022-11-15T06:43:31;6.90;99.90
7030;DHT22;3556;53.500;10.176;2022-11-15T06:46:00;6.80;99.90
7030;DHT22;3556;53.500;10.176;2022-11-15T06:48:27;6.90;99.90
7030;DHT22;3556;53.500;10.176;2022-11-15T06:50:53;6.80;99.90
7030;DHT22;3556;53.500;10.176;2022-11-15T06:53:19;6.80;99.90
7030;DHT22;3556;53.500;10.176;2022-11-15T06:55:45;6.80;99.90
7030;DHT22;3556;53.500;10.176;2022-11-15T06:58:11;6.80;99.90
7030;DHT22;3556;53.500;10.176;2022-11-15T07:00:36;6.80;99.90
7030;DHT22;3556;53.500;10.176;2022-11-15T07:03:02;6.80;99.90
7030;DHT22;3556;53.500;10.176;2022-11-15T07:05:28;6.90;99.90
7030;DHT22;3556;53.500;10.176;2022-11-15T07:07:56;6.90;99.90
7030;DHT22;3556;53.500;10.176;2022-11-15T07:10:22;6.80;99.90
7030;DHT22;3556;53.500;10.176;2022-11-15T07:12:53;6.90;99.90
7030;DHT22;3556;53.500;10.176;2022-11-15T07:15:23;6.90;99.90
7030;DHT22;3556;53.500;10.176;2022-11-15T07:17:49;6.90;99.90
7030;DHT22;3556;53.500;10.176;2022-11-15T07:20:15;6.90;99.90
7030;DHT22;3556;53.500;10.176;2022-11-15T07:22:42;6.90;99.90
7030;DHT22;3556;53.500;10.176;2022-11-15T07:25:08;6.90;99.90
7030;DHT22;3556;53.500;10.176;2022-11-15T07:27:34;6.90;99.90
7030;DHT22;3556;53.500;10.176;2022-11-15T07:30:00;7.00;99.90
7030;DHT22;3556;53.500;10.176;2022-11-15T07:32:25;7.00;99.90
7030;DHT22;3556;53.500;10.176;2022-11-15T07:34:51;7.00;99.90
7030;DHT22;3556;53.500;10.176;2022-11-15T07:37:17;7.00;99.90
7030;DHT22;3556;53.500;10.176;2022-11-15T07:39:43;7.00;99.90
7030;DHT22;3556;53.500;10.176;2022-11-15T07:42:09;7.10;99.90
7030;DHT22;3556;53.500;10.176;2022-11-15T07:44:58;7.10;99.90
7030;DHT22;3556;53.500;10.176;2022-11-15T07:47:23;7.10;99.90
7030;DHT22;3556;53.500;10.176;2022-11-15T07:49:49;7.10;99.90
7030;DHT22;3556;53.500;10.176;2022-11-15T07:52:14;7.10;99.90
7030;DHT22;3556;53.500;10.176;2022-11-15T07:54:40;7.20;99.90
7030;DHT22;3556;53.500;10.176;2022-11-15T07:57:06;7.20;99.90
7030;DHT22;3556;53.500;10.176;2022-11-15T07:59:32;7.20;99.90
7030;DHT22;3556;53.500;10.176;2022-11-15T08:02:00;7.20;99.90
7030;DHT22;3556;53.500;10.176;2022-11-15T08:04:25;7.20;99.90
7030;DHT22;3556;53.500;10.176;2022-11-15T08:06:51;7.20;99.90
7030;DHT22;3556;53.500;10.176;2022-11-15T08:09:16;7.20;99.90
7030;DHT22;3556;53.500;10.176;2022-11-15T08:11:42;7.30;99.90
7030;DHT22;3556;53.500;10.176;2022-11-15T08:14:07;7.30;99.90
7030;DHT22;3556;53.500;10.176;2022-11-15T08:16:33;7.40;99.90
7030;DHT22;3556;53.500;10.176;2022-11-15T08:18:59;7.40;99.90
7030;DHT22;3556;53.500;10.176;2022-11-15T08:21:25;7.40;99.90
7030;DHT22;3556;53.500;10.176;2022-11-15T08:23:51;7.40;99.90
7030;DHT22;3556;53.500;10.176;2022-11-15T08:26:17;7.40;99.90
7030;DHT22;3556;53.500;10.176;2022-11-15T08:28:42;7.40;99.90
7030;DHT22;3556;53.500;10.176;2022-11-15T08:31:14;7.50;99.90
7030;DHT22;3556;53.500;10.176;2022-11-15T08:33:42;7.50;99.90
7030;DHT22;3556;53.500;10.176;2022-11-15T08:36:15;7.50;99.90
7030;DHT22;3556;53.500;10.176;2022-11-15T08:38:41;7.50;99.90
7030;DHT22;3556;53.500;10.176;2022-11-15T08:41:11;7.50;99.90
7030;DHT22;3556;53.500;10.176;2022-11-15T08:43:37;7.50;99.90
7030;DHT22;3556;53.500;10.176;2022-11-15T08:46:03;7.50;99.90
7030;DHT22;3556;53.500;10.176;2022-11-15T08:48:29;7.50;99.90
7030;DHT22;3556;53.500;10.176;2022-11-15T08:50:56;7.60;99.90
7030;DHT22;3556;53.500;10.176;2022-11-15T08:53:22;7.60;99.90
7030;DHT22;3556;53.500;10.176;2022-11-15T08:55:48;7.70;99.90
7030;DHT22;3556;53.500;10.176;2022-11-15T08:58:13;7.70;99.90
7030;DHT22;3556;53.500;10.176;2022-11-15T09:00:39;7.80;99.90
7030;DHT22;3556;53.500;10.176;2022-11-15T09:03:06;7.90;99.90
7030;DHT22;3556;53.500;10.176;2022-11-15T09:05:31;8.00;99.90
7030;DHT22;3556;53.500;10.176;2022-11-15T09:07:57;8.10;99.90
7030;DHT22;3556;53.500;10.176;2022-11-15T09:10:23;8.30;99.90
7030;DHT22;3556;53.500;10.176;2022-11-15T09:12:49;8.40;99.90
7030;DHT22;3556;53.500;10.176;2022-11-15T09:15:15;8.50;99.90
7030;DHT22;3556;53.500;10.176;2022-11-15T09:17:42;8.70;99.90
7030;DHT22;3556;53.500;10.176;2022-11-15T09:20:08;8.80;99.90
7030;DHT22;3556;53.500;10.176;2022-11-15T09:22:34;8.90;99.90
7030;DHT22;3556;53.500;10.176;2022-11-15T09:25:02;9.00;99.90
7030;DHT22;3556;53.500;10.176;2022-11-15T09:27:29;9.10;99.90
7030;DHT22;3556;53.500;10.176;2022-11-15T09:29:55;9.20;99.90
7030;DHT22;3556;53.500;10.176;2022-11-15T09:32:21;9.30;99.90
7030;DHT22;3556;53.500;10.176;2022-11-15T09:34:48;9.40;99.90
7030;DHT22;3556;53.500;10.176;2022-11-15T09:37:14;9.50;99.90
7030;DHT22;3556;53.500;10.176;2022-11-15T09:39:40;9.60;99.90
7030;DHT22;3556;53.500;10.176;2022-11-15T09:43:22;9.60;99.90
7030;DHT22;3556;53.500;10.176;2022-11-15T09:48:50;9.70;99.90
7030;DHT22;3556;53.500;10.176;2022-11-15T09:51:31;9.80;99.90
7030;DHT22;3556;53.500;10.176;2022-11-15T09:56:44;9.90;99.90
7030;DHT22;3556;53.500;10.176;2022-11-15T10:04:16;10.00;99.90
7030;DHT22;3556;53.500;10.176;2022-11-15T10:07:06;10.00;99.90
7030;DHT22;3556;53.500;10.176;2022-11-15T10:09:42;10.10;99.90
7030;DHT22;3556;53.500;10.176;2022-11-15T10:12:10;10.10;99.90
7030;DHT22;3556;53.500;10.176;2022-11-15T10:14:37;10.10;99.90
7030;DHT22;3556;53.500;10.176;2022-11-15T10:25:37;10.20;99.90
7030;DHT22;3556;53.500;10.176;2022-11-15T10:28:11;10.20;99.90
7030;DHT22;3556;53.500;10.176;2022-11-15T10:30:41;10.20;99.90
7030;DHT22;3556;53.500;10.176;2022-11-15T10:33:30;10.20;99.90
7030;DHT22;3556;53.500;10.176;2022-11-15T10:41:21;10.30;99.90
7030;DHT22;3556;53.500;10.176;2022-11-15T10:46:34;10.40;99.90
7030;DHT22;3556;53.500;10.176;2022-11-15T10:49:13;10.40;99.90
7030;DHT22;3556;53.500;10.176;2022-11-15T10:51:53;10.50;99.90
7030;DHT22;3556;53.500;10.176;2022-11-15T10:54:24;10.50;99.90
7030;DHT22;3556;53.500;10.176;2022-11-15T10:56:54;10.50;99.90
7030;DHT22;3556;53.500;10.176;2022-11-15T10:59:26;10.50;99.90
7030;DHT22;3556;53.500;10.176;2022-11-15T11:01:53;10.60;99.90
7030;DHT22;3556;53.500;10.176;2022-11-15T11:04:19;10.60;99.90
7030;DHT22;3556;53.500;10.176;2022-11-15T11:06:58;10.60;99.90
7030;DHT22;3556;53.500;10.176;2022-11-15T11:09:38;10.70;99.90
7030;DHT22;3556;53.500;10.176;2022-11-15T11:12:08;10.80;99.90
7030;DHT22;3556;53.500;10.176;2022-11-15T11:14:36;10.80;99.90
7030;DHT22;3556;53.500;10.176;2022-11-15T11:33:12;11.10;99.90
7030;DHT22;3556;53.500;10.176;2022-11-15T11:47:03;11.30;99.90
7030;DHT22;3556;53.500;10.176;2022-11-15T11:57:46;11.50;99.90
7030;DHT22;3556;53.500;10.176;2022-11-15T12:00:24;11.60;99.90
7030;DHT22;3556;53.500;10.176;2022-11-15T12:05:48;11.60;99.90
7030;DHT22;3556;53.500;10.176;2022-11-15T12:11:04;11.70;99.90
7030;DHT22;3556;53.500;10.176;2022-11-15T12:13:33;11.70;99.90
7030;DHT22;3556;53.500;10.176;2022-11-15T12:18:47;11.70;99.90
7030;DHT22;3556;53.500;10.176;2022-11-15T12:24:20;11.80;99.90
7030;DHT22;3556;53.500;10.176;2022-11-15T12:26:54;11.90;99.90
7030;DHT22;3556;53.500;10.176;2022-11-15T12:29:42;11.90;99.90
7030;DHT22;3556;53.500;10.176;2022-11-15T12:32:29;12.00;99.90
7030;DHT22;3556;53.500;10.176;2022-11-15T12:34:57;12.10;99.90
7030;DHT22;3556;53.500;10.176;2022-11-15T12:40:29;12.30;99.90
7030;DHT22;3556;53.500;10.176;2022-11-15T12:45:44;12.60;99.90
7030;DHT22;3556;53.500;10.176;2022-11-15T12:53:26;12.80;99.90
7030;DHT22;3556;53.500;10.176;2022-11-15T12:58:57;12.90;99.90
7030;DHT22;3556;53.500;10.176;2022-11-15T13:12:08;13.10;99.90
7030;DHT22;3556;53.500;10.176;2022-11-15T13:17:29;13.30;99.90
7030;DHT22;3556;53.500;10.176;2022-11-15T13:22:26;13.40;99.90
7030;DHT22;3556;53.500;10.176;2022-11-15T13:27:48;13.40;99.90
7030;DHT22;3556;53.500;10.176;2022-11-15T13:30:20;13.40;99.90
7030;DHT22;3556;53.500;10.176;2022-11-15T13:32:46;13.40;99.90
7030;DHT22;3556;53.500;10.176;2022-11-15T13:35:27;13.40;99.90
7030;DHT22;3556;53.500;10.176;2022-11-15T13:37:55;13.40;99.90
7030;DHT22;3556;53.500;10.176;2022-11-15T13:40:26;13.40;99.90
7030;DHT22;3556;53.500;10.176;2022-11-15T13:42:53;13.40;99.90
7030;DHT22;3556;53.500;10.176;2022-11-15T13:45:19;13.40;99.90
7030;DHT22;3556;53.500;10.176;2022-11-15T13:47:51;13.40;99.90
7030;DHT22;3556;53.500;10.176;2022-11-15T13:50:18;13.40;99.90
7030;DHT22;3556;53.500;10.176;2022-11-15T13:52:47;13.30;99.90
7030;DHT22;3556;53.500;10.176;2022-11-15T13:55:20;13.20;99.90
7030;DHT22;3556;53.500;10.176;2022-11-15T13:58:01;13.10;99.90
7030;DHT22;3556;53.500;10.176;2022-11-15T14:00:45;13.10;99.90
7030;DHT22;3556;53.500;10.176;2022-11-15T14:03:24;13.20;99.90
7030;DHT22;3556;53.500;10.176;2022-11-15T14:06:21;13.20;99.90
7030;DHT22;3556;53.500;10.176;2022-11-15T14:11:37;13.70;99.90
7030;DHT22;3556;53.500;10.176;2022-11-15T14:14:14;14.30;99.90
7030;DHT22;3556;53.500;10.176;2022-11-15T14:16:45;15.10;99.90
7030;DHT22;3556;53.500;10.176;2022-11-15T14:22:19;16.40;99.90
7030;DHT22;3556;53.500;10.176;2022-11-15T14:25:04;17.00;99.90
7030;DHT22;3556;53.500;10.176;2022-11-15T14:27:31;17.20;99.90
7030;DHT22;3556;53.500;10.176;2022-11-15T14:29:57;17.10;99.90
7030;DHT22;3556;53.500;10.176;2022-11-15T14:32:25;16.90;99.90
7030;DHT22;3556;53.500;10.176;2022-11-15T14:34:59;16.80;99.90
7030;DHT22;3556;53.500;10.176;2022-11-15T14:37:33;16.80;99.90
7030;DHT22;3556;53.500;10.176;2022-11-15T14:40:03;16.80;99.90
7030;DHT22;3556;53.500;10.176;2022-11-15T14:42:29;16.70;99.90
7030;DHT22;3556;53.500;10.176;2022-11-15T14:44:55;16.50;99.90
7030;DHT22;3556;53.500;10.176;2022-11-15T14:47:21;16.20;99.90
7030;DHT22;3556;53.500;10.176;2022-11-15T14:49:46;15.90;99.90
7030;DHT22;3556;53.500;10.176;2022-11-15T14:52:32;15.60;99.90
7030;DHT22;3556;53.500;10.176;2022-11-15T14:55:02;15.20;99.90
7030;DHT22;3556;53.500;10.176;2022-11-15T14:57:29;14.90;99.90
7030;DHT22;3556;53.500;10.176;2022-11-15T14:59:55;14.60;99.90
7030;DHT22;3556;53.500;10.176;2022-11-15T15:02:24;14.20;99.90
7030;DHT22;3556;53.500;10.176;2022-11-15T15:04:50;14.00;99.90
7030;DHT22;3556;53.500;10.176;2022-11-15T15:07:17;13.70;99.90
7030;DHT22;3556;53.500;10.176;2022-11-15T15:09:43;13.40;99.90
7030;DHT22;3556;53.500;10.176;2022-11-15T15:12:22;13.20;99.90
7030;DHT22;3556;53.500;10.176;2022-11-15T15:14:49;12.90;99.90
7030;DHT22;3556;53.500;10.176;2022-11-15T15:17:15;12.80;99.90
7030;DHT22;3556;53.500;10.176;2022-11-15T15:19:41;12.60;99.90
7030;DHT22;3556;53.500;10.176;2022-11-15T15:22:15;12.40;99.90
7030;DHT22;3556;53.500;10.176;2022-11-15T15:24:42;12.20;99.90
7030;DHT22;3556;53.500;10.176;2022-11-15T15:27:09;12.00;99.90
7030;DHT22;3556;53.500;10.176;2022-11-15T15:29:34;11.90;99.90
7030;DHT22;3556;53.500;10.176;2022-11-15T15:32:00;11.80;99.90
7030;DHT22;3556;53.500;10.176;2022-11-15T15:34:25;11.70;99.90
7030;DHT22;3556;53.500;10.176;2022-11-15T15:37:21;11.60;99.90
7030;DHT22;3556;53.500;10.176;2022-11-15T15:39:51;11.50;99.90
7030;DHT22;3556;53.500;10.176;2022-11-15T15:42:18;11.30;99.90
7030;DHT22;3556;53.500;10.176;2022-11-15T15:44:43;11.30;99.90
7030;DHT22;3556;53.500;10.176;2022-11-15T15:47:22;11.20;99.90
7030;DHT22;3556;53.500;10.176;2022-11-15T15:49:49;11.10;99.90
7030;DHT22;3556;53.500;10.176;2022-11-15T15:52:15;11.00;99.90
7030;DHT22;3556;53.500;10.176;2022-11-15T15:54:42;11.00;99.90
7030;DHT22;3556;53.500;10.176;2022-11-15T15:57:08;10.90;99.90
7030;DHT22;3556;53.500;10.176;2022-11-15T15:59:36;10.80;99.90
7030;DHT22;3556;53.500;10.176;2022-11-15T16:02:02;10.80;99.90
7030;DHT22;3556;53.500;10.176;2022-11-15T16:04:27;10.70;99.90
7030;DHT22;3556;53.500;10.176;2022-11-15T16:06:58;10.60;99.90
7030;DHT22;3556;53.500;10.176;2022-11-15T16:09:24;10.60;99.90
7030;DHT22;3556;53.500;10.176;2022-11-15T16:12:08;10.60;99.90
7030;DHT22;3556;53.500;10.176;2022-11-15T16:14:34;10.50;99.90
7030;DHT22;3556;53.500;10.176;2022-11-15T16:16:59;10.50;99.90
7030;DHT22;3556;53.500;10.176;2022-11-15T16:19:25;10.40;99.90
7030;DHT22;3556;53.500;10.176;2022-11-15T16:21:51;10.40;99.90
7030;DHT22;3556;53.500;10.176;2022-11-15T16:24:17;10.40;99.90
7030;DHT22;3556;53.500;10.176;2022-11-15T16:26:43;10.40;99.90
7030;DHT22;3556;53.500;10.176;2022-11-15T16:29:10;10.40;99.90
7030;DHT22;3556;53.500;10.176;2022-11-15T16:31:36;10.40;99.90
7030;DHT22;3556;53.500;10.176;2022-11-15T16:34:02;10.40;99.90
7030;DHT22;3556;53.500;10.176;2022-11-15T16:36:30;10.30;99.90
7030;DHT22;3556;53.500;10.176;2022-11-15T16:38:58;10.30;99.90
7030;DHT22;3556;53.500;10.176;2022-11-15T16:41:23;10.30;99.90
7030;DHT22;3556;53.500;10.176;2022-11-15T16:43:49;10.30;99.90
7030;DHT22;3556;53.500;10.176;2022-11-15T16:46:20;10.30;99.90
7030;DHT22;3556;53.500;10.176;2022-11-15T16:48:47;10.30;99.90
7030;DHT22;3556;53.500;10.176;2022-11-15T16:51:13;10.30;99.90
7030;DHT22;3556;53.500;10.176;2022-11-15T16:53:39;10.30;99.90
7030;DHT22;3556;53.500;10.176;2022-11-15T16:58:43;10.30;99.90
7030;DHT22;3556;53.500;10.176;2022-11-15T17:01:18;10.30;99.90
7030;DHT22;3556;53.500;10.176;2022-11-15T17:03:44;10.30;99.90
7030;DHT22;3556;53.500;10.176;2022-11-15T17:06:12;10.30;99.90
7030;DHT22;3556;53.500;10.176;2022-11-15T17:08:38;10.30;99.90
7030;DHT22;3556;53.500;10.176;2022-11-15T17:11:05;10.30;99.90
7030;DHT22;3556;53.500;10.176;2022-11-15T17:13:31;10.30;99.90
7030;DHT22;3556;53.500;10.176;2022-11-15T17:16:09;10.30;99.90
7030;DHT22;3556;53.500;10.176;2022-11-15T17:18:36;10.30;99.90
7030;DHT22;3556;53.500;10.176;2022-11-15T17:21:07;10.30;99.90
7030;DHT22;3556;53.500;10.176;2022-11-15T17:23:34;10.30;99.90
7030;DHT22;3556;53.500;10.176;2022-11-15T17:26:01;10.40;99.90
7030;DHT22;3556;53.500;10.176;2022-11-15T17:28:28;10.40;99.90
7030;DHT22;3556;53.500;10.176;2022-11-15T17:30:54;10.40;99.90
7030;DHT22;3556;53.500;10.176;2022-11-15T17:33:20;10.40;99.90
7030;DHT22;3556;53.500;10.176;2022-11-15T17:35:45;10.50;99.90
7030;DHT22;3556;53.500;10.176;2022-11-15T17:38:11;10.50;99.90
7030;DHT22;3556;53.500;10.176;2022-11-15T17:40:37;10.40;99.90
7030;DHT22;3556;53.500;10.176;2022-11-15T17:43:04;10.40;99.90
7030;DHT22;3556;53.500;10.176;2022-11-15T17:45:30;10.40;99.90
7030;DHT22;3556;53.500;10.176;2022-11-15T17:47:56;10.40;99.90
7030;DHT22;3556;53.500;10.176;2022-11-15T17:50:21;10.40;99.90
7030;DHT22;3556;53.500;10.176;2022-11-15T17:52:47;10.40;99.90
7030;DHT22;3556;53.500;10.176;2022-11-15T17:55:12;10.40;99.90
7030;DHT22;3556;53.500;10.176;2022-11-15T17:57:38;10.30;99.90
7030;DHT22;3556;53.500;10.176;2022-11-15T18:00:04;10.30;99.90
7030;DHT22;3556;53.500;10.176;2022-11-15T18:02:30;10.30;99.90
7030;DHT22;3556;53.500;10.176;2022-11-15T18:04:56;10.30;99.90
7030;DHT22;3556;53.500;10.176;2022-11-15T18:07:21;10.20;99.90
7030;DHT22;3556;53.500;10.176;2022-11-15T18:09:47;10.20;99.90
7030;DHT22;3556;53.500;10.176;2022-11-15T18:12:13;10.30;99.90
7030;DHT22;3556;53.500;10.176;2022-11-15T18:14:38;10.30;99.90
7030;DHT22;3556;53.500;10.176;2022-11-15T18:17:04;10.30;99.90
7030;DHT22;3556;53.500;10.176;2022-11-15T18:19:29;10.30;99.90
7030;DHT22;3556;53.500;10.176;2022-11-15T18:21:55;10.30;99.90
7030;DHT22;3556;53.500;10.176;2022-11-15T18:24:26;10.30;99.90
7030;DHT22;3556;53.500;10.176;2022-11-15T18:26:52;10.30;99.90